Time;durP1;ratioP1;P1;durP2;ratioP2;P2;SDS_P1;SDS_P2;PMS_P1;PMS_P2;Temp;Humidity;BMP_temperature;BMP_pressure;BME280_temperature;BME280_humidity;BME280_pressure;Samples;Min_cycle;Max_cycle;Signal;HPM_P1;HPM_P2
2022/10/21 00:01:45;;;;;;;0.00;0.00;;;;;;;12.69;100.00;99204.88;5071126;28;20405;-39
2022/10/21 00:04:12;;;;;;;0.13;0.13;;;;;;;12.67;100.00;99201.72;5064548;28;20043;-39
2022/10/21 00:06:38;;;;;;;0.00;0.00;;;;;;;12.67;100.00;99196.16;5084107;28;20476;-39
2022/10/21 00:09:05;;;;;;;0.00;0.00;;;;;;;12.65;100.00;99184.66;5054753;28;20121;-42
2022/10/21 00:11:32;;;;;;;0.00;0.00;;;;;;;12.65;100.00;99186.63;5043194;28;20114;-40
2022/10/21 00:13:59;;;;;;;0.00;0.00;;;;;;;12.66;100.00;99188.19;5043127;28;20143;-40
2022/10/21 00:16:26;;;;;;;0.38;0.38;;;;;;;12.68;100.00;99183.06;5043850;28;20044;-42
2022/10/21 00:18:53;;;;;;;0.00;0.00;;;;;;;12.69;100.00;99181.88;5066461;28;20106;-41
2022/10/21 00:21:20;;;;;;;0.00;0.00;;;;;;;12.68;100.00;99180.28;5075516;28;20044;-39
2022/10/21 00:23:49;;;;;;;0.00;0.00;;;;;;;12.67;100.00;99162.84;5056864;28;20048;-41
2022/10/21 00:26:17;;;;;;;0.00;0.00;;;;;;;12.66;100.00;99160.44;5057849;28;20036;-42
2022/10/21 00:28:44;;;;;;;0.00;0.00;;;;;;;12.66;100.00;99149.34;5055241;28;20062;-40
2022/10/21 00:31:12;;;;;;;0.00;0.00;;;;;;;12.66;100.00;99146.56;5049221;28;20040;-39
2022/10/21 00:33:39;;;;;;;0.00;0.00;;;;;;;12.65;100.00;99143.00;5052542;28;20039;-39
2022/10/21 00:36:13;;;;;;;0.00;0.00;;;;;;;12.63;100.00;99130.69;5061086;28;20040;-40
2022/10/21 00:38:43;;;;;;;0.00;0.00;;;;;;;12.62;100.00;99132.69;5049948;28;20052;-43
2022/10/21 00:41:10;;;;;;;0.00;0.00;;;;;;;12.61;100.00;99131.09;5050350;28;20043;-43
2022/10/21 00:43:55;;;;;;;0.00;0.00;;;;;;;12.59;100.00;99122.38;5063809;28;20035;-40
2022/10/21 00:46:43;;;;;;;0.00;0.00;;;;;;;12.58;100.00;99118.00;5074319;28;20047;-39
2022/10/21 00:49:23;;;;;;;0.00;0.00;;;;;;;12.58;100.00;99120.00;5068193;28;20502;-39
2022/10/21 00:51:55;;;;;;;0.00;0.00;;;;;;;12.58;100.00;99123.56;5071473;28;20056;-42
2022/10/21 00:54:23;;;;;;;0.00;0.00;;;;;;;12.60;100.00;99117.63;5069052;28;20036;-39
2022/10/21 00:56:53;;;;;;;0.00;0.00;;;;;;;12.60;100.00;99112.06;5067604;28;20147;-40
2022/10/21 00:59:22;;;;;;;0.00;0.00;;;;;;;12.61;100.00;99117.22;5069760;28;20577;-39
2022/10/21 01:01:49;;;;;;;0.00;0.00;;;;;;;12.61;100.00;99106.13;5075858;28;20090;-41
2022/10/21 01:04:16;;;;;;;0.00;0.00;;;;;;;12.63;100.00;99097.38;5067313;28;20401;-39
2022/10/21 01:06:44;;;;;;;26.40;5.15;;;;;;;12.64;100.00;99097.00;5050691;28;20055;-42
2022/10/21 01:09:12;;;;;;;34.55;6.20;;;;;;;12.67;100.00;99092.63;5050835;28;20619;-39
2022/10/21 01:11:45;;;;;;;19.20;5.82;;;;;;;12.66;100.00;99083.50;5058573;28;20048;-40
2022/10/21 01:14:27;;;;;;;33.10;5.18;;;;;;;12.68;100.00;99085.88;5062110;28;20032;-44
2022/10/21 01:17:12;;;;;;;28.80;5.13;;;;;;;12.67;100.00;99071.22;5082591;28;20040;-39
2022/10/21 01:20:19;;;;;;;32.50;5.88;;;;;;;12.69;100.00;99066.03;5065916;28;20093;-39
2022/10/21 01:22:55;;;;;;;25.90;5.47;;;;;;;12.68;100.00;99047.78;5068836;28;20102;-39
2022/10/21 01:25:49;;;;;;;26.23;5.25;;;;;;;12.69;100.00;99059.69;5064296;28;20057;-38
2022/10/21 01:28:34;;;;;;;37.53;7.57;;;;;;;12.69;100.00;99056.91;5075872;28;20036;-45
2022/10/21 01:31:19;;;;;;;23.80;4.68;;;;;;;12.68;100.00;99047.00;5078891;28;20045;-40
2022/10/21 01:33:58;;;;;;;30.05;4.45;;;;;;;12.69;100.00;99054.13;5068303;28;20139;-39
2022/10/21 01:36:38;;;;;;;20.52;4.95;;;;;;;12.67;100.00;99046.22;5069733;28;20040;-39
2022/10/21 01:39:25;;;;;;;22.58;4.07;;;;;;;12.66;100.00;99050.19;5068430;28;20054;-40
2022/10/21 01:41:52;;;;;;;30.73;5.07;;;;;;;12.68;100.00;99052.56;5071311;28;20045;-39
2022/10/21 01:44:28;;;;;;;21.25;4.72;;;;;;;12.67;100.00;99046.22;5072605;28;20048;-38
2022/10/21 01:47:05;;;;;;;22.15;3.72;;;;;;;12.69;100.00;99066.03;5078191;28;20040;-39
2022/10/21 01:49:40;;;;;;;18.42;4.05;;;;;;;12.68;100.00;99058.88;5077308;28;20091;-40
2022/10/21 01:52:07;;;;;;;26.13;4.55;;;;;;;12.69;100.00;99060.50;5074648;28;20043;-39
2022/10/21 01:54:38;;;;;;;27.65;4.85;;;;;;;12.71;100.00;99052.53;5079282;28;20367;-38
2022/10/21 01:57:08;;;;;;;21.00;3.88;;;;;;;12.71;100.00;99047.00;5076065;28;20053;-38
2022/10/21 01:59:36;;;;;;;23.92;4.38;;;;;;;12.72;100.00;99040.25;5082331;28;20040;-39
2022/10/21 02:02:06;;;;;;;22.35;4.38;;;;;;;12.71;100.00;99018.44;5071424;28;20062;-41
2022/10/21 02:04:35;;;;;;;22.73;5.70;;;;;;;12.72;100.00;99018.03;5073445;28;20052;-43
2022/10/21 02:07:04;;;;;;;17.48;4.32;;;;;;;12.72;100.00;99008.91;5080534;28;20049;-38
2022/10/21 02:09:31;;;;;;;23.83;3.92;;;;;;;12.70;100.00;99006.56;5074386;28;20051;-39
2022/10/21 02:12:04;;;;;;;24.13;4.32;;;;;;;12.70;100.00;99009.31;5070961;28;20093;-40
2022/10/21 02:14:40;;;;;;;37.67;6.20;;;;;;;12.70;100.00;98995.44;5076497;28;20399;-39
2022/10/21 02:17:11;;;;;;;16.80;3.80;;;;;;;12.71;100.00;98999.00;5068737;28;20044;-39
2022/10/21 02:19:38;;;;;;;23.20;3.50;;;;;;;12.71;100.00;98997.00;5083527;28;20036;-39
2022/10/21 02:22:09;;;;;;;15.70;3.47;;;;;;;12.70;100.00;98995.44;5074170;28;20394;-39
2022/10/21 02:24:50;;;;;;;22.50;4.03;;;;;;;12.68;100.00;98974.81;5066467;28;20052;-39
2022/10/21 02:27:17;;;;;;;20.15;3.25;;;;;;;12.68;100.00;98969.28;5052938;28;20064;-39
2022/10/21 02:29:46;;;;;;;18.38;3.70;;;;;;;12.66;100.00;98961.34;5072985;28;20046;-39
2022/10/21 02:32:12;;;;;;;25.40;4.88;;;;;;;12.66;100.00;98947.44;5077720;28;20051;-39
2022/10/21 02:34:48;;;;;;;17.13;3.40;;;;;;;12.65;100.00;98945.88;5076368;28;20040;-38
2022/10/21 02:37:36;;;;;;;23.67;3.50;;;;;;;12.65;100.00;98942.31;5076306;28;20055;-39
2022/10/21 02:40:15;;;;;;;16.20;2.92;;;;;;;12.64;100.00;98949.84;5072210;28;20047;-39
2022/10/21 02:43:01;;;;;;;15.85;3.00;;;;;;;12.65;100.00;98934.78;5046049;28;20517;-41
2022/10/21 02:45:28;;;;;;;24.83;4.05;;;;;;;12.65;100.00;98931.22;5043743;28;20044;-42
2022/10/21 02:47:54;;;;;;;13.70;2.42;;;;;;;12.64;100.00;98927.63;5051327;28;20047;-41
2022/10/21 02:50:21;;;;;;;17.05;2.90;;;;;;;12.65;100.00;98920.91;5044410;28;20045;-43
2022/10/21 02:52:48;;;;;;;20.33;3.47;;;;;;;12.65;100.00;98912.56;5055711;28;20394;-39
2022/10/21 02:55:15;;;;;;;14.05;3.20;;;;;;;12.64;100.00;98902.66;5076114;28;20522;-39
2022/10/21 02:57:41;;;;;;;16.98;2.58;;;;;;;12.65;100.00;98901.47;5046086;28;20044;-45
2022/10/21 03:00:09;;;;;;;12.13;2.70;;;;;;;12.64;100.00;98899.88;5042306;28;20041;-41
2022/10/21 03:02:35;;;;;;;19.38;3.22;;;;;;;12.64;100.00;98894.31;5043557;22;20105;-42
2022/10/21 03:05:02;;;;;;;15.02;2.83;;;;;;;12.64;100.00;98897.09;4989867;28;20117;-48
2022/10/21 03:07:29;;;;;;;14.40;2.80;;;;;;;12.64;100.00;98888.75;4989127;28;20049;-44
2022/10/21 03:09:56;;;;;;;12.85;2.30;;;;;;;12.66;100.00;98878.03;4989303;28;20061;-44
2022/10/21 03:12:23;;;;;;;17.52;2.63;;;;;;;12.66;100.00;98875.25;4988707;28;20107;-44
2022/10/21 03:14:50;;;;;;;10.90;2.00;;;;;;;12.67;100.00;98867.72;4990128;28;20127;-43
2022/10/21 03:17:17;;;;;;;11.15;2.03;;;;;;;12.67;100.00;98854.63;4989405;28;20045;-44
2022/10/21 03:19:49;;;;;;;8.30;2.03;;;;;;;12.67;100.00;98857.41;4991924;28;20046;-45
2022/10/21 03:22:16;;;;;;;9.00;2.00;;;;;;;12.67;100.00;98846.31;4988213;28;20060;-42
2022/10/21 03:24:43;;;;;;;22.50;3.15;;;;;;;12.69;100.00;98845.91;5015352;28;20046;-39
2022/10/21 03:27:10;;;;;;;15.85;3.28;;;;;;;12.66;100.00;98838.38;5024671;28;20061;-41
2022/10/21 03:29:37;;;;;;;14.00;2.58;;;;;;;12.64;100.00;98836.00;5029336;28;20046;-42
2022/10/21 03:32:04;;;;;;;15.63;2.40;;;;;;;12.64;100.00;98822.13;5018327;28;20053;-41
2022/10/21 03:34:30;;;;;;;10.63;2.03;;;;;;;12.62;100.00;98812.63;5025282;28;20127;-41
2022/10/21 03:36:57;;;;;;;14.40;2.78;;;;;;;12.62;100.00;98821.75;5003688;28;20064;-44
2022/10/21 03:39:24;;;;;;;17.58;4.05;;;;;;;12.62;100.00;98810.66;5026412;28;20045;-41
2022/10/21 03:41:51;;;;;;;10.55;1.65;;;;;;;12.63;100.00;98805.88;5003525;28;20053;-43
2022/10/21 03:44:18;;;;;;;10.02;1.70;;;;;;;12.63;100.00;98795.56;4988039;28;20045;-41
2022/10/21 03:46:44;;;;;;;7.93;2.10;;;;;;;12.65;100.00;98784.84;4988216;28;20422;-43
2022/10/21 03:49:11;;;;;;;9.13;1.85;;;;;;;12.63;100.00;98776.13;4991165;28;20051;-40
2022/10/21 03:51:47;;;;;;;12.00;1.48;;;;;;;12.64;100.00;98772.16;4989558;28;20045;-41
2022/10/21 03:54:14;;;;;;;5.85;1.35;;;;;;;12.65;100.00;98759.88;4991443;28;20507;-44
2022/10/21 03:56:41;;;;;;;12.45;2.10;;;;;;;12.66;100.00;98766.19;4987596;28;20046;-43
2022/10/21 03:59:07;;;;;;;13.50;2.10;;;;;;;12.66;100.00;98764.22;4988427;28;20194;-41
2022/10/21 04:01:35;;;;;;;13.30;3.88;;;;;;;12.66;100.00;98766.97;4987434;28;20058;-44
2022/10/21 04:04:02;;;;;;;15.13;3.28;;;;;;;12.67;100.00;98765.78;4988049;28;21294;-43
2022/10/21 04:06:29;;;;;;;20.15;4.25;;;;;;;12.68;100.00;98770.13;4988604;28;20045;-42
2022/10/21 04:08:55;;;;;;;15.20;2.80;;;;;;;12.63;100.00;98762.25;4987837;28;20041;-43
2022/10/21 04:11:22;;;;;;;14.75;3.78;;;;;;;12.58;100.00;98742.44;4991384;28;20139;-44
2022/10/21 04:13:49;;;;;;;17.55;2.90;;;;;;;12.51;100.00;98731.41;4984385;28;20565;-44
2022/10/21 04:16:19;;;;;;;11.70;1.90;;;;;;;12.47;100.00;98731.41;5005838;28;20044;-42
2022/10/21 04:18:46;;;;;;;10.00;1.85;;;;;;;12.45;100.00;98725.50;4987778;28;20080;-42
2022/10/21 04:21:13;;;;;;;11.80;1.98;;;;;;;12.43;100.00;98718.75;4997185;28;21913;-43
2022/10/21 04:23:40;;;;;;;13.70;2.47;;;;;;;12.42;100.00;98711.63;4993840;28;20053;-41
2022/10/21 04:26:08;;;;;;;14.15;3.63;;;;;;;12.41;100.00;98708.09;5014632;28;20046;-42
2022/10/21 04:28:35;;;;;;;13.93;2.20;;;;;;;12.42;100.00;98706.06;5007882;28;20061;-44
2022/10/21 04:31:02;;;;;;;8.25;1.90;;;;;;;12.42;100.00;98706.88;4999662;28;20710;-41
2022/10/21 04:33:29;;;;;;;11.63;2.25;;;;;;;12.41;100.00;98699.75;4988756;28;20041;-41
2022/10/21 04:35:57;;;;;;;8.45;1.92;;;;;;;12.43;100.00;98686.25;5009654;28;20064;-39
2022/10/21 04:38:25;;;;;;;8.30;2.33;;;;;;;12.44;100.00;98679.53;5027570;28;20091;-40
2022/10/21 04:41:00;;;;;;;13.18;2.40;;;;;;;12.45;100.00;98667.22;5024645;28;20034;-41
2022/10/21 04:43:27;;;;;;;15.82;2.45;;;;;;;12.47;100.00;98664.81;5023764;28;20049;-39
2022/10/21 04:45:54;;;;;;;10.77;1.92;;;;;;;12.48;100.00;98654.50;5009247;28;20038;-39
2022/10/21 04:48:22;;;;;;;18.48;2.63;;;;;;;12.48;100.00;98655.28;5009864;28;20046;-43
2022/10/21 04:50:52;;;;;;;14.20;1.88;;;;;;;12.50;100.00;98664.00;4988662;28;20060;-45
2022/10/21 04:53:20;;;;;;;14.52;1.90;;;;;;;12.51;100.00;98657.25;5000109;28;20049;-46
2022/10/21 04:55:53;;;;;;;14.65;3.08;;;;;;;12.54;100.00;98659.22;5009854;28;20076;-41
2022/10/21 04:58:20;;;;;;;21.10;2.40;;;;;;;12.56;100.00;98656.03;4987378;28;20049;-44
2022/10/21 05:00:51;;;;;;;17.63;2.60;;;;;;;12.56;100.00;98656.81;4972236;28;20521;-42
2022/10/21 05:03:19;;;;;;;14.85;2.20;;;;;;;12.58;100.00;98646.09;4988698;28;20115;-41
2022/10/21 05:05:49;;;;;;;13.02;2.58;;;;;;;12.60;100.00;98643.69;4987513;28;20530;-44
2022/10/21 05:08:18;;;;;;;18.77;2.58;;;;;;;12.61;100.00;98642.50;4987556;28;20057;-45
2022/10/21 05:10:46;;;;;;;17.30;2.53;;;;;;;12.63;100.00;98640.09;4987796;28;20720;-41
2022/10/21 05:13:13;;;;;;;15.70;2.20;;;;;;;12.64;100.00;98650.00;4987515;28;20055;-45
2022/10/21 05:15:40;;;;;;;13.05;3.17;;;;;;;12.66;100.00;98647.59;4987631;28;20054;-43
2022/10/21 05:18:06;;;;;;;20.23;3.20;;;;;;;12.67;100.00;98640.88;4991151;28;20395;-43
2022/10/21 05:20:33;;;;;;;22.45;2.85;;;;;;;12.67;100.00;98638.09;4993971;28;20104;-41
2022/10/21 05:23:00;;;;;;;30.40;5.45;;;;;;;12.66;100.00;98625.41;4992265;28;20064;-40
2022/10/21 05:25:26;;;;;;;16.42;3.55;;;;;;;12.66;100.00;98628.16;4992446;28;20049;-42
2022/10/21 05:28:00;;;;;;;29.80;5.05;;;;;;;12.65;100.00;98615.50;4993213;28;22504;-41
2022/10/21 05:30:27;;;;;;;27.88;3.80;;;;;;;12.64;100.00;98619.47;5006007;28;20037;-43
2022/10/21 05:32:54;;;;;;;27.20;3.88;;;;;;;12.64;100.00;98613.13;4983682;28;20537;-47
2022/10/21 05:35:20;;;;;;;26.98;3.95;;;;;;;12.64;100.00;98591.72;4992187;28;20688;-42
2022/10/21 05:37:47;;;;;;;26.45;4.45;;;;;;;12.65;100.00;98589.72;5015059;28;20067;-40
2022/10/21 05:40:14;;;;;;;24.38;3.80;;;;;;;12.64;100.00;98594.50;5002546;28;20068;-43
2022/10/21 05:42:40;;;;;;;28.85;7.35;;;;;;;12.62;100.00;98588.56;5003472;28;20610;-38
2022/10/21 05:45:08;;;;;;;32.47;7.82;;;;;;;12.61;100.00;98584.19;5021921;28;20132;-41
2022/10/21 05:47:34;;;;;;;32.00;4.93;;;;;;;12.60;100.00;98574.28;4991187;28;20045;-46
2022/10/21 05:50:01;;;;;;;35.10;5.15;;;;;;;12.60;100.00;98568.72;4996223;28;20045;-40
2022/10/21 05:52:28;;;;;;;23.20;5.82;;;;;;;12.59;100.00;98561.63;5031018;28;20042;-41
2022/10/21 05:54:54;;;;;;;24.40;4.60;;;;;;;12.60;100.00;98563.19;5025178;28;20502;-39
2022/10/21 05:57:21;;;;;;;24.33;4.90;;;;;;;12.60;100.00;98545.75;5031545;28;20068;-41
2022/10/21 05:59:48;;;;;;;27.63;4.45;;;;;;;12.61;100.00;98553.66;5012709;28;20048;-42
2022/10/21 06:02:14;;;;;;;31.30;4.20;;;;;;;12.60;100.00;98535.41;5024564;28;20068;-47
2022/10/21 06:04:41;;;;;;;17.58;4.03;;;;;;;12.60;100.00;98535.41;5031391;28;20147;-39
2022/10/21 06:07:08;;;;;;;18.73;3.22;;;;;;;12.60;100.00;98531.88;5030560;28;20044;-39
2022/10/21 06:09:36;;;;;;;22.00;4.38;;;;;;;12.57;100.00;98525.16;4997147;28;21269;-40
2022/10/21 06:12:03;;;;;;;16.65;3.85;;;;;;;12.57;100.00;98535.47;4996052;28;20054;-40
2022/10/21 06:14:30;;;;;;;18.75;3.58;;;;;;;12.57;100.00;98522.41;4977358;28;20049;-42
2022/10/21 06:16:56;;;;;;;17.35;4.65;;;;;;;12.55;100.00;98535.88;4995230;28;20049;-39
2022/10/21 06:19:23;;;;;;;23.73;3.33;;;;;;;12.53;100.00;98518.84;4991825;28;20045;-40
2022/10/21 06:21:50;;;;;;;21.85;4.55;;;;;;;12.53;100.00;98524.41;4991484;28;20071;-45
2022/10/21 06:24:16;;;;;;;25.70;3.33;;;;;;;12.57;100.00;98524.38;4990803;28;20053;-44
2022/10/21 06:26:43;;;;;;;19.17;3.08;;;;;;;12.57;100.00;98507.72;4991771;28;20060;-45
2022/10/21 06:29:13;;;;;;;17.27;4.03;;;;;;;12.58;100.00;98503.72;4989481;28;21910;-43
2022/10/21 06:31:40;;;;;;;19.42;2.45;;;;;;;12.61;100.00;98497.34;4999274;28;20053;-40
2022/10/21 06:34:08;;;;;;;17.55;2.83;;;;;;;12.62;100.00;98498.94;5022289;28;20184;-45
2022/10/21 06:36:37;;;;;;;25.67;3.60;;;;;;;12.62;100.00;98490.63;4990086;28;20152;-44
2022/10/21 06:39:05;;;;;;;17.25;2.92;;;;;;;12.64;100.00;98500.09;4977431;28;20164;-39
2022/10/21 06:41:31;;;;;;;15.80;3.53;;;;;;;12.64;100.00;98490.97;4995417;28;20435;-43
2022/10/21 06:43:58;;;;;;;24.08;3.65;;;;;;;12.64;100.00;98497.31;4974702;28;20404;-41
2022/10/21 06:46:25;;;;;;;12.98;2.85;;;;;;;12.64;100.00;98491.78;4991845;28;20042;-42
2022/10/21 06:48:52;;;;;;;26.15;3.92;;;;;;;12.65;100.00;98487.00;4990890;28;20053;-40
2022/10/21 06:51:22;;;;;;;31.00;6.55;;;;;;;12.66;100.00;98489.38;4990677;28;20049;-41
2022/10/21 06:53:54;;;;;;;34.70;5.57;;;;;;;12.66;100.00;98491.34;4990728;28;20049;-42
2022/10/21 06:56:21;;;;;;;27.10;3.95;;;;;;;12.66;100.00;98469.94;4990696;28;20053;-41
2022/10/21 06:58:49;;;;;;;37.95;4.75;;;;;;;12.65;100.00;98475.91;4992340;28;20057;-40
2022/10/21 07:01:25;;;;;;;18.98;3.58;;;;;;;12.64;100.00;98469.56;4991131;28;20143;-40
2022/10/21 07:04:02;;;;;;;33.47;4.45;;;;;;;12.63;100.00;98472.75;4991026;28;20491;-39
2022/10/21 07:06:29;;;;;;;28.83;5.72;;;;;;;12.64;100.00;98483.44;4988265;28;20057;-40
2022/10/21 07:08:56;;;;;;;28.38;4.15;;;;;;;12.65;100.00;98464.81;4988839;28;20051;-40
2022/10/21 07:11:25;;;;;;;25.20;3.88;;;;;;;12.67;100.00;98460.41;4990358;28;20046;-40
2022/10/21 07:13:52;;;;;;;18.65;3.35;;;;;;;12.68;100.00;98464.75;4972905;28;20049;-42
2022/10/21 07:16:25;;;;;;;28.75;4.65;;;;;;;12.70;100.00;98451.25;4989539;28;20060;-41
2022/10/21 07:18:53;;;;;;;21.90;2.92;;;;;;;12.73;100.00;98469.84;4989698;28;20056;-40
2022/10/21 07:21:23;;;;;;;33.63;4.60;;;;;;;12.74;100.00;98445.66;4973955;28;20566;-43
2022/10/21 07:23:51;;;;;;;27.88;4.07;;;;;;;12.74;100.00;98440.88;4990705;28;20075;-41
2022/10/21 07:26:20;;;;;;;26.13;4.60;;;;;;;12.77;100.00;98433.72;4989663;28;20379;-40
2022/10/21 07:28:47;;;;;;;33.60;5.38;;;;;;;12.78;100.00;98447.19;4974487;28;20104;-39
2022/10/21 07:31:18;;;;;;;19.08;3.38;;;;;;;12.80;100.00;98458.66;4990057;28;20155;-42
2022/10/21 07:33:46;;;;;;;17.52;4.07;;;;;;;12.84;100.00;98447.50;4991710;28;20056;-40
2022/10/21 07:36:17;;;;;;;29.10;5.28;;;;;;;12.86;100.00;98455.44;4989729;28;20045;-40
2022/10/21 07:38:46;;;;;;;20.55;4.80;;;;;;;12.89;100.00;98462.94;4997906;28;20056;-40
2022/10/21 07:41:21;;;;;;;27.05;4.60;;;;;;;12.90;100.00;98453.38;5005387;28;20170;-39
2022/10/21 07:43:49;;;;;;;26.42;5.30;;;;;;;12.91;100.00;98443.84;5028036;28;20554;-39
2022/10/21 07:46:17;;;;;;;24.80;5.93;;;;;;;12.90;100.00;98428.38;5023195;28;20501;-39
2022/10/21 07:48:43;;;;;;;22.77;4.00;;;;;;;12.92;100.00;98431.56;5026038;28;20474;-43
2022/10/21 07:51:14;;;;;;;28.48;4.70;;;;;;;12.93;100.00;98435.88;4992280;28;20063;-41
2022/10/21 07:53:41;;;;;;;19.52;4.07;;;;;;;12.94;100.00;98427.16;4972649;28;20045;-42
2022/10/21 07:56:17;;;;;;;27.92;5.80;;;;;;;12.96;100.00;98424.75;5023387;28;20045;-39
2022/10/21 07:58:47;;;;;;;28.20;4.78;;;;;;;12.98;100.00;98424.31;5028661;28;20053;-39
2022/10/21 08:01:15;;;;;;;24.73;5.60;;;;;;;13.02;100.00;98422.28;5028914;28;20065;-39
2022/10/21 08:03:43;;;;;;;21.35;4.90;;;;;;;13.03;100.00;98426.63;5029132;28;20046;-40
2022/10/21 08:06:12;;;;;;;20.30;4.82;;;;;;;13.06;100.00;98431.34;5028050;28;20053;-39
2022/10/21 08:08:39;;;;;;;27.60;4.70;;;;;;;13.09;100.00;98416.66;5028037;28;20388;-39
2022/10/21 08:11:07;;;;;;;19.40;4.68;;;;;;;13.14;100.00;98418.97;5029468;28;20392;-40
2022/10/21 08:13:34;;;;;;;29.58;6.15;;;;;;;13.19;100.00;98424.03;5030122;28;20099;-40
2022/10/21 08:16:05;;;;;;;19.48;4.32;;;;;;;13.20;100.00;98417.28;5026935;28;20045;-39
2022/10/21 08:18:32;;;;;;;19.38;4.35;;;;;;;13.21;100.00;98430.00;5024594;28;20053;-44
2022/10/21 08:21:02;;;;;;;36.83;6.20;;;;;;;13.22;100.00;98429.56;5016905;28;20364;-40
2022/10/21 08:23:29;;;;;;;33.53;6.43;;;;;;;13.23;100.00;98427.56;5025878;28;20049;-41
2022/10/21 08:25:59;;;;;;;36.85;6.35;;;;;;;13.24;100.00;98435.47;5027022;28;20056;-40
2022/10/21 08:28:28;;;;;;;29.92;6.93;;;;;;;13.25;100.00;98430.72;5027751;28;20555;-41
2022/10/21 08:31:13;;;;;;;35.28;6.00;;;;;;;13.26;100.00;98443.41;5024941;28;20091;-43
2022/10/21 08:33:42;;;;;;;39.20;8.80;;;;;;;13.26;100.00;98426.75;5021821;28;20083;-41
2022/10/21 08:36:18;;;;;;;34.30;5.88;;;;;;;13.24;100.00;98435.47;5006613;28;20046;-40
2022/10/21 08:38:45;;;;;;;23.27;5.53;;;;;;;13.22;100.00;98437.91;5019760;28;20449;-45
2022/10/21 08:41:25;;;;;;;37.88;6.68;;;;;;;13.22;100.00;98428.78;4995929;28;20041;-39
2022/10/21 08:43:57;;;;;;;32.78;5.75;;;;;;;13.23;100.00;98422.03;5022457;28;20430;-39
2022/10/21 08:46:30;;;;;;;40.63;7.22;;;;;;;13.23;100.00;98419.25;5025814;28;20379;-39
2022/10/21 08:49:10;;;;;;;26.75;6.18;;;;;;;13.22;100.00;98426.78;5026393;28;20438;-39
2022/10/21 08:51:43;;;;;;;32.70;5.18;;;;;;;13.23;100.00;98408.13;5028356;28;20041;-45
2022/10/21 08:54:21;;;;;;;31.23;5.90;;;;;;;13.23;100.00;98410.91;5010034;28;20049;-44
2022/10/21 08:56:53;;;;;;;34.97;6.00;;;;;;;13.22;100.00;98407.34;5025217;28;20045;-40
2022/10/21 08:59:23;;;;;;;40.38;8.02;;;;;;;13.21;100.00;98385.53;5028436;28;20140;-46
2022/10/21 09:02:02;;;;;;;44.63;8.77;;;;;;;13.21;100.00;98402.97;5025538;28;20044;-39
2022/10/21 09:04:53;;;;;;;46.70;8.10;;;;;;;13.22;100.00;98403.75;5027398;28;20133;-40
2022/10/21 09:07:29;;;;;;;31.73;7.03;;;;;;;13.22;100.00;98385.09;5017945;28;20084;-39
2022/10/21 09:10:01;;;;;;;43.65;7.30;;;;;;;13.25;100.00;98392.59;5028366;28;20065;-39
2022/10/21 09:12:39;;;;;;;38.65;7.97;;;;;;;13.26;100.00;98404.50;5028368;28;20053;-40
2022/10/21 09:15:16;;;;;;;36.63;6.20;;;;;;;13.28;100.00;98404.88;5026655;28;20128;-40
2022/10/21 09:18:11;;;;;;;38.78;7.20;;;;;;;13.31;100.00;98401.25;5010484;28;20211;-40
2022/10/21 09:21:01;;;;;;;36.25;6.07;;;;;;;13.35;100.00;98393.63;4997624;28;20055;-39
2022/10/21 09:23:46;;;;;;;40.38;6.78;;;;;;;13.37;100.00;98394.00;5026101;28;20053;-39
2022/10/21 09:26:28;;;;;;;35.95;6.57;;;;;;;13.38;100.00;98393.59;5021060;28;20053;-40
2022/10/21 09:28:56;;;;;;;28.98;6.50;;;;;;;13.38;100.00;98407.50;5023533;28;20187;-39
2022/10/21 09:31:23;;;;;;;52.40;8.68;;;;;;;13.38;100.00;98392.81;5028267;28;20049;-39
2022/10/21 09:33:57;;;;;;;40.20;8.52;;;;;;;13.41;100.00;98400.31;5028298;28;20046;-39
2022/10/21 09:36:37;;;;;;;48.10;7.60;;;;;;;13.44;100.00;98407.81;5024426;28;20046;-40
2022/10/21 09:39:21;;;;;;;41.58;7.63;;;;;;;13.48;100.00;98400.19;5027566;28;20136;-40
2022/10/21 09:41:51;;;;;;;31.85;6.65;;;;;;;13.50;100.00;98408.91;5026623;28;20499;-39
2022/10/21 09:44:24;;;;;;;45.85;9.45;;;;;;;13.50;100.00;98403.34;5027525;28;20098;-40
2022/10/21 09:46:52;;;;;;;42.05;7.18;;;;;;;13.49;100.00;98395.41;5027177;28;20049;-40
2022/10/21 09:49:35;;;;;;;50.33;7.60;;;;;;;13.45;100.00;98398.25;5028041;28;20056;-39
2022/10/21 09:52:28;;;;;;;49.47;7.10;;;;;;;13.43;100.00;98389.53;5028304;28;20045;-40
2022/10/21 09:54:55;;;;;;;34.70;5.90;;;;;;;13.45;100.00;98389.91;5010857;28;20499;-41
2022/10/21 09:57:47;;;;;;;29.48;5.50;;;;;;;13.47;100.00;98393.06;5008686;28;20140;-41
2022/10/21 10:00:13;;;;;;;33.55;5.63;;;;;;;13.48;100.00;98394.63;5014891;28;20047;-40
2022/10/21 10:02:44;;;;;;;29.98;6.20;;;;;;;13.49;100.00;98390.66;5028469;28;20068;-40
2022/10/21 10:05:35;;;;;;;35.75;5.90;;;;;;;13.56;100.00;98384.97;5031399;28;20046;-43
2022/10/21 10:08:23;;;;;;;36.22;4.97;;;;;;;13.68;100.00;98383.59;5030524;28;20526;-40
2022/10/21 10:10:50;;;;;;;30.92;6.53;;;;;;;13.79;100.00;98382.19;5028748;28;20052;-46
2022/10/21 10:13:19;;;;;;;23.85;3.92;;;;;;;13.92;100.00;98385.16;5025516;28;20060;-44
2022/10/21 10:15:46;;;;;;;20.48;4.82;;;;;;;14.00;100.00;98381.78;5012320;28;20049;-40
2022/10/21 10:18:22;;;;;;;26.95;4.47;;;;;;;14.09;100.00;98372.09;5028687;28;20049;-40
2022/10/21 10:21:12;;;;;;;33.22;6.07;;;;;;;14.11;100.00;98369.72;5031356;28;20491;-40
2022/10/21 10:23:45;;;;;;;38.55;6.95;;;;;;;14.09;100.00;98378.47;5013652;28;20046;-41
2022/10/21 10:26:32;;;;;;;31.77;5.57;;;;;;;14.06;100.00;98384.13;5030598;28;20507;-40
2022/10/21 10:29:14;;;;;;;41.85;8.45;;;;;;;14.03;100.00;98374.63;5025157;28;20045;-42
2022/10/21 10:32:01;;;;;;;40.28;6.90;;;;;;;14.08;100.00;98362.22;5030991;28;20136;-43
2022/10/21 10:34:31;;;;;;;39.80;6.30;;;;;;;14.12;100.00;98371.25;5013865;28;20300;-44
2022/10/21 10:37:24;;;;;;;52.05;9.73;;;;;;;14.16;100.00;98377.56;5029848;28;20048;-40
2022/10/21 10:39:58;;;;;;;44.15;7.80;;;;;;;14.12;100.00;98379.59;5018222;28;20045;-40
2022/10/21 10:42:31;;;;;;;60.03;8.73;;;;;;;14.08;100.00;98384.47;5030066;28;20467;-42
2022/10/21 10:45:03;;;;;;;52.78;8.95;;;;;;;14.04;100.00;98376.97;5031250;28;20049;-40
2022/10/21 10:47:38;;;;;;;58.40;11.27;;;;;;;14.07;100.00;98375.34;5011902;28;20119;-44
2022/10/21 10:50:43;;;;;;;55.40;8.85;;;;;;;14.24;100.00;98373.44;5018476;28;20042;-40
2022/10/21 10:53:35;;;;;;;47.33;8.93;;;;;;;14.36;100.00;98375.59;5031221;28;20049;-40
2022/10/21 10:56:22;;;;;;;48.05;8.68;;;;;;;14.46;100.00;98369.03;5030732;28;20426;-40
2022/10/21 10:59:00;;;;;;;57.72;9.25;;;;;;;14.50;100.00;98366.97;5029141;28;20057;-41
2022/10/21 11:01:33;;;;;;;65.10;9.15;;;;;;;14.60;100.00;98372.31;5028907;28;20481;-41
2022/10/21 11:04:14;;;;;;;57.05;8.63;;;;;;;14.63;100.00;98374.25;5028383;28;20054;-41
2022/10/21 11:06:49;;;;;;;63.28;9.23;;;;;;;14.66;100.00;98366.25;5030581;28;20418;-41
2022/10/21 11:09:18;;;;;;;58.60;10.52;;;;;;;14.77;100.00;98364.81;5030332;28;20060;-48
2022/10/21 11:11:53;;;;;;;65.78;11.65;;;;;;;14.88;100.00;98370.91;5030207;28;20041;-41
2022/10/21 11:14:20;;;;;;;57.03;10.40;;;;;;;14.89;100.00;98380.84;5030878;28;20060;-40
2022/10/21 11:17:01;;;;;;;58.22;9.75;;;;;;;14.95;100.00;98379.13;5028666;28;20041;-40
2022/10/21 11:19:39;;;;;;;44.60;7.88;;;;;;;14.97;100.00;98385.06;5031067;28;20038;-41
2022/10/21 11:22:35;;;;;;;57.65;10.40;;;;;;;14.97;100.00;98385.06;5030418;28;20046;-40
2022/10/21 11:25:17;;;;;;;54.05;9.23;;;;;;;14.99;100.00;98385.41;5030432;28;20402;-43
2022/10/21 11:27:52;;;;;;;46.08;8.73;;;;;;;15.02;100.00;98395.69;5029499;28;20046;-41
2022/10/21 11:30:21;;;;;;;55.88;9.45;;;;;;;15.07;100.00;98381.25;5029930;28;20085;-40
2022/10/21 11:32:52;;;;;;;44.38;8.10;;;;;;;15.05;100.00;98383.69;5029895;28;20064;-40
2022/10/21 11:35:28;;;;;;;38.17;7.30;;;;;;;15.03;100.00;98397.28;5030009;28;20404;-40
2022/10/21 11:38:10;;;;;;;32.53;6.53;;;;;;;14.97;100.00;98404.56;5041761;28;20045;-41